Time;durP1;ratioP1;P1;durP2;ratioP2;P2;SDS_P1;SDS_P2;PMS_P1;PMS_P2;Temp;Humidity;BMP_temperature;BMP_pressure;BME280_temperature;BME280_humidity;BME280_pressure;Samples;Min_cycle;Max_cycle;Signal;HPM_P1;HPM_P2
2022/07/21 00:01:59;;;;;;;6.78;2.10;;;;;;;13.34;98.46;100013.05;1754509;81;22129;-72
2022/07/21 00:04:27;;;;;;;4.97;2.02;;;;;;;13.33;98.40;100014.00;1769396;80;21593;-72
2022/07/21 00:06:54;;;;;;;5.47;2.15;;;;;;;13.31;98.59;100017.18;1781314;80;20994;-72
2022/07/21 00:09:21;;;;;;;6.22;2.12;;;;;;;13.28;99.26;100020.84;1788202;79;21886;-73
2022/07/21 00:11:48;;;;;;;4.17;1.98;;;;;;;13.23;99.42;100019.71;1787917;80;21024;-72
2022/07/21 00:14:15;;;;;;;12.15;2.42;;;;;;;13.19;99.97;100016.83;1788142;80;21031;-71
2022/07/21 00:16:44;;;;;;;6.97;1.90;;;;;;;13.17;100.00;100019.16;1787776;80;21028;-71
2022/07/21 00:19:12;;;;;;;5.70;2.20;;;;;;;13.13;100.00;100007.86;1788089;80;21158;-71
2022/07/21 00:21:39;;;;;;;5.08;2.30;;;;;;;13.11;100.00;100012.39;1788149;80;21597;-71
2022/07/21 00:24:06;;;;;;;5.83;2.10;;;;;;;13.09;100.00;100016.02;1788098;79;21028;-70
2022/07/21 00:26:35;;;;;;;6.83;1.98;;;;;;;13.08;100.00;100020.93;1787881;80;21043;-71
2022/07/21 00:29:03;;;;;;;4.53;1.90;;;;;;;13.06;100.00;100017.03;1788089;80;22095;-72
2022/07/21 00:31:30;;;;;;;4.28;2.02;;;;;;;13.03;100.00;100025.12;1762796;80;21048;-71
2022/07/21 00:33:56;;;;;;;10.05;2.52;;;;;;;12.99;100.00;100015.62;1761603;80;21547;-73
2022/07/21 00:36:23;;;;;;;4.83;2.25;;;;;;;12.96;100.00;100015.78;1756864;81;21562;-70
2022/07/21 00:38:50;;;;;;;6.12;2.10;;;;;;;12.93;100.00;100015.47;1733225;81;21567;-70
2022/07/21 00:41:18;;;;;;;4.78;2.20;;;;;;;12.91;100.00;100016.48;1756833;80;21062;-73
2022/07/21 00:43:44;;;;;;;6.83;2.37;;;;;;;12.90;100.00;100012.11;1757102;80;21098;-72
2022/07/21 00:46:11;;;;;;;5.78;2.22;;;;;;;12.88;100.00;100014.81;1756832;81;21146;-71
2022/07/21 00:48:39;;;;;;;5.72;1.90;;;;;;;12.86;100.00;100011.41;1756679;81;21087;-71
2022/07/21 00:51:06;;;;;;;8.25;2.12;;;;;;;12.86;100.00;100014.50;1756877;81;21083;-72
2022/07/21 00:53:35;;;;;;;4.92;2.10;;;;;;;12.84;100.00;100009.75;1764290;80;21094;-70
2022/07/21 00:56:02;;;;;;;2.92;1.75;;;;;;;12.80;100.00;100004.62;1788024;79;21030;-71
2022/07/21 00:58:29;;;;;;;4.00;1.77;;;;;;;12.79;100.00;100009.53;1787865;80;21304;-71
2022/07/21 01:00:57;;;;;;;3.60;1.87;;;;;;;12.76;100.00;100012.77;1788054;80;21056;-71
2022/07/21 01:03:23;;;;;;;2.62;1.77;;;;;;;12.73;100.00;100012.45;1787949;80;21023;-72
2022/07/21 01:05:51;;;;;;;4.50;1.95;;;;;;;12.73;100.00;100011.61;1783096;80;21110;-71
2022/07/21 01:08:19;;;;;;;2.77;1.75;;;;;;;12.73;100.00;100009.81;1769824;80;21057;-70
2022/07/21 01:10:46;;;;;;;10.68;1.80;;;;;;;12.73;100.00;100009.81;1770260;80;21721;-71
2022/07/21 01:13:14;;;;;;;4.58;1.98;;;;;;;12.71;100.00;100006.39;1769630;81;21549;-73
2022/07/21 01:15:41;;;;;;;7.70;1.77;;;;;;;12.73;100.00;100011.13;1746201;81;21070;-72
2022/07/21 01:18:09;;;;;;;7.67;1.92;;;;;;;12.73;100.00;100009.81;1769824;80;21034;-72
2022/07/21 01:20:36;;;;;;;6.03;1.47;;;;;;;12.74;100.00;100016.80;1746047;81;22142;-72
2022/07/21 01:23:05;;;;;;;3.75;1.80;;;;;;;12.75;100.00;100011.92;1770045;80;21832;-71
2022/07/21 01:25:32;;;;;;;8.55;2.10;;;;;;;12.78;100.00;100007.80;1770096;81;21050;-72
2022/07/21 01:28:01;;;;;;;4.50;1.62;;;;;;;12.80;100.00;100011.70;1746358;81;21082;-70
2022/07/21 01:30:29;;;;;;;8.05;1.90;;;;;;;12.85;100.00;100003.08;1769875;81;21082;-72
2022/07/21 01:32:56;;;;;;;3.60;1.95;;;;;;;12.89;100.00;100003.80;1769917;80;21655;-71
2022/07/21 01:35:25;;;;;;;5.30;1.62;;;;;;;12.89;100.00;100001.16;1769845;80;21223;-70
2022/07/21 01:37:58;;;;;;;2.98;1.60;;;;;;;12.91;100.00;100005.91;1769772;81;21007;-71
2022/07/21 01:43:11;;;;;;;7.53;1.85;;;;;;;12.93;100.00;100002.69;1769405;80;21075;-71
2022/07/21 01:45:41;;;;;;;7.08;2.20;;;;;;;12.92;100.00;99995.71;1769736;81;21359;-70
2022/07/21 01:48:08;;;;;;;7.27;1.90;;;;;;;12.91;100.00;99999.30;1770093;81;21252;-72
2022/07/21 01:50:36;;;;;;;5.47;1.82;;;;;;;12.91;100.00;99996.66;1769611;80;21062;-70
2022/07/21 01:53:04;;;;;;;8.70;1.75;;;;;;;12.90;100.00;99997.56;1770043;80;21109;-71
2022/07/21 01:55:32;;;;;;;4.87;1.55;;;;;;;12.90;100.00;100000.21;1787801;80;21555;-71
2022/07/21 01:58:01;;;;;;;6.42;1.70;;;;;;;12.89;100.00;99996.72;1787674;80;21032;-73
2022/07/21 02:00:28;;;;;;;4.25;1.90;;;;;;;12.90;100.00;99998.42;1787967;80;21120;-71
2022/07/21 02:02:55;;;;;;;4.87;1.50;;;;;;;12.91;100.00;99994.02;1788087;80;21031;-70
2022/07/21 02:05:23;;;;;;;2.90;1.80;;;;;;;12.91;100.00;99999.30;1787856;80;20995;-71
2022/07/21 02:07:52;;;;;;;3.70;1.55;;;;;;;12.92;100.00;99999.67;1787711;80;20989;-71
2022/07/21 02:10:20;;;;;;;3.40;1.60;;;;;;;12.93;100.00;99994.77;1787813;80;21076;-72
2022/07/21 02:12:47;;;;;;;3.90;1.77;;;;;;;12.92;100.00;99990.42;1787521;80;21590;-72
2022/07/21 02:15:13;;;;;;;2.85;1.60;;;;;;;12.92;100.00;99990.42;1787875;80;21031;-71
2022/07/21 02:17:43;;;;;;;4.95;1.57;;;;;;;12.93;100.00;99990.36;1787477;80;21071;-72
2022/07/21 02:20:13;;;;;;;3.58;1.40;;;;;;;12.92;100.00;99986.45;1787412;80;21063;-70
2022/07/21 02:22:44;;;;;;;5.62;1.67;;;;;;;12.92;100.00;99993.06;1762291;80;22318;-72
2022/07/21 02:25:09;;;;;;;3.70;1.67;;;;;;;12.93;100.00;99990.80;1787384;80;21233;-71
2022/07/21 02:27:38;;;;;;;7.58;1.50;;;;;;;12.92;100.00;99982.49;1787300;80;21728;-72
2022/07/21 02:30:06;;;;;;;2.37;1.62;;;;;;;12.95;100.00;99988.94;1787763;80;21075;-72
2022/07/21 02:32:33;;;;;;;6.65;2.02;;;;;;;12.93;100.00;99981.55;1787755;80;21043;-71
2022/07/21 02:35:00;;;;;;;3.00;1.87;;;;;;;12.95;100.00;99981.02;1787583;80;21304;-71
2022/07/21 02:37:28;;;;;;;4.85;1.72;;;;;;;12.94;100.00;99981.48;1787618;80;21148;-71
2022/07/21 02:39:55;;;;;;;2.75;1.40;;;;;;;12.96;100.00;99985.38;1787745;80;21099;-71
2022/07/21 02:42:22;;;;;;;5.95;1.60;;;;;;;12.96;100.00;99978.78;1787507;80;21035;-70
2022/07/21 02:44:48;;;;;;;6.22;1.60;;;;;;;12.99;100.00;99987.39;1787505;80;21075;-71
2022/07/21 02:47:15;;;;;;;3.05;1.47;;;;;;;13.02;100.00;99979.77;1787457;80;22171;-71
2022/07/21 02:49:44;;;;;;;9.40;1.50;;;;;;;13.05;100.00;99973.03;1787576;80;21231;-72
2022/07/21 02:52:10;;;;;;;2.35;1.40;;;;;;;13.09;100.00;99974.60;1787445;80;21023;-71
2022/07/21 02:54:37;;;;;;;5.83;1.30;;;;;;;13.14;100.00;99976.54;1766834;80;21156;-72
2022/07/21 02:57:07;;;;;;;4.40;1.30;;;;;;;13.19;100.00;99965.26;1756321;81;21020;-73
2022/07/21 02:59:33;;;;;;;6.28;1.42;;;;;;;13.27;100.00;99956.92;1756173;81;21054;-72
2022/07/21 03:02:00;;;;;;;6.40;1.57;;;;;;;13.35;100.00;99956.59;1756250;81;21261;-71
2022/07/21 03:04:26;;;;;;;6.67;1.50;;;;;;;13.44;100.00;99956.12;1756450;80;21036;-73
2022/07/21 03:06:53;;;;;;;4.33;1.55;;;;;;;13.54;100.00;99961.30;1756420;80;21550;-72
2022/07/21 03:09:20;;;;;;;6.72;1.67;;;;;;;13.62;100.00;99963.09;1756281;80;21571;-72
2022/07/21 03:11:46;;;;;;;3.02;2.15;;;;;;;13.73;100.00;99964.31;1756774;81;21118;-72
2022/07/21 03:14:14;;;;;;;5.12;1.77;;;;;;;13.85;100.00;99962.36;1756631;80;22069;-73
2022/07/21 03:16:40;;;;;;;3.67;1.50;;;;;;;13.96;100.00;99961.29;1756629;81;21023;-71
2022/07/21 03:19:08;;;;;;;5.30;1.47;;;;;;;14.08;100.00;99962.89;1756298;81;21039;-71
2022/07/21 03:21:35;;;;;;;3.45;1.60;;;;;;;14.19;100.00;99956.55;1756641;80;21567;-71
2022/07/21 03:24:07;;;;;;;6.47;1.70;;;;;;;14.32;100.00;99957.59;1756524;81;21051;-72
2022/07/21 03:26:38;;;;;;;5.70;1.50;;;;;;;14.46;100.00;99960.31;1756660;81;21210;-71
2022/07/21 03:29:04;;;;;;;7.12;1.60;;;;;;;14.59;100.00;99958.36;1756352;81;21051;-71
2022/07/21 03:31:32;;;;;;;4.40;1.50;;;;;;;14.71;100.00;99960.30;1756675;81;22012;-72
2022/07/21 03:33:59;;;;;;;2.98;1.52;;;;;;;14.85;99.53;99959.52;1756326;81;21031;-72
2022/07/21 03:36:26;;;;;;;4.72;1.40;;;;;;;14.98;99.44;99961.00;1756181;80;22074;-71
2022/07/21 03:38:56;;;;;;;5.45;1.35;;;;;;;15.12;97.59;99965.02;1756386;81;21231;-71
2022/07/21 03:43:53;;;;;;;5.05;1.62;;;;;;;15.50;95.67;99953.92;1814472;79;23336;-71
2022/07/21 03:46:20;;;;;;;4.83;1.40;;;;;;;15.74;94.34;99958.27;1787568;80;21026;-72
2022/07/21 03:48:47;;;;;;;5.90;1.77;;;;;;;16.01;92.80;99954.39;1787560;80;21153;-72
2022/07/21 03:51:13;;;;;;;9.45;1.50;;;;;;;16.31;89.16;99948.06;1787460;80;21492;-71
2022/07/21 03:53:41;;;;;;;5.33;1.70;;;;;;;16.74;87.41;99934.66;1778665;80;20982;-73
2022/07/21 03:56:09;;;;;;;3.08;1.67;;;;;;;17.17;84.72;99941.16;1756194;81;21583;-72
2022/07/21 03:58:39;;;;;;;5.62;1.57;;;;;;;17.62;81.11;99936.28;1756228;81;21012;-72
2022/07/21 04:01:08;;;;;;;3.08;1.67;;;;;;;18.07;78.84;99931.39;1709497;82;21233;-73
2022/07/21 04:03:35;;;;;;;4.53;1.70;;;;;;;18.47;75.69;99941.83;1707963;83;21673;-73
2022/07/21 04:06:02;;;;;;;2.40;1.70;;;;;;;18.75;72.59;99939.80;1726197;83;21055;-72
2022/07/21 04:08:29;;;;;;;4.90;1.60;;;;;;;18.81;72.74;99940.72;1726053;83;21054;-71
2022/07/21 04:10:58;;;;;;;6.28;1.80;;;;;;;18.95;71.18;99940.53;1726047;82;21008;-72
2022/07/21 04:13:25;;;;;;;5.12;1.70;;;;;;;19.24;69.54;99945.51;1725994;82;21140;-70
2022/07/21 04:15:52;;;;;;;7.92;1.72;;;;;;;19.56;67.74;99944.38;1726203;83;21614;-72
2022/07/21 04:18:19;;;;;;;2.58;1.52;;;;;;;19.85;65.93;99947.48;1726093;83;21136;-74
2022/07/21 04:20:47;;;;;;;8.15;1.80;;;;;;;20.06;65.24;99942.72;1726219;82;21058;-73
2022/07/21 04:23:14;;;;;;;4.67;1.72;;;;;;;20.30;63.97;99939.92;1707487;83;21023;-71
2022/07/21 04:25:40;;;;;;;2.50;1.55;;;;;;;20.62;63.17;99944.02;1726446;83;21142;-74
2022/07/21 04:28:08;;;;;;;2.87;1.50;;;;;;;20.94;62.01;99943.20;1726124;83;21163;-72
2022/07/21 04:30:36;;;;;;;4.62;1.60;;;;;;;21.14;60.33;99945.05;1726290;82;21042;-71
2022/07/21 04:33:03;;;;;;;2.83;1.50;;;;;;;21.23;59.74;99935.38;1726063;83;21578;-72
2022/07/21 04:35:31;;;;;;;6.95;1.57;;;;;;;21.37;58.66;99926.16;1726425;83;21015;-72
2022/07/21 04:37:58;;;;;;;8.63;1.85;;;;;;;21.58;58.24;99924.37;1749438;81;21185;-70
2022/07/21 04:40:25;;;;;;;6.83;1.85;;;;;;;21.73;57.55;99922.67;1756277;81;21025;-68
2022/07/21 04:42:51;;;;;;;6.22;1.55;;;;;;;21.62;56.80;99919.58;1754812;81;21020;-72
2022/07/21 04:45:18;;;;;;;2.70;1.52;;;;;;;21.49;57.04;99925.16;1756602;81;21089;-73
2022/07/21 04:47:54;;;;;;;3.00;1.32;;;;;;;21.52;57.36;99921.37;1756666;81;21067;-73
2022/07/21 04:50:25;;;;;;;3.40;1.55;;;;;;;21.77;55.45;99918.25;1752524;81;21892;-70
2022/07/21 04:52:53;;;;;;;2.90;1.60;;;;;;;22.02;55.76;99916.11;1755622;81;21069;-72
2022/07/21 04:55:20;;;;;;;5.28;1.87;;;;;;;22.29;54.73;99918.21;1755920;81;21107;-73
2022/07/21 04:57:49;;;;;;;2.02;1.22;;;;;;;22.55;53.71;99915.02;1755707;80;21096;-73
2022/07/21 05:00:23;;;;;;;5.47;1.85;;;;;;;22.68;51.76;99915.56;1754183;81;21131;-72
2022/07/21 05:02:50;;;;;;;5.22;1.57;;;;;;;22.90;52.08;99910.94;1754568;81;21674;-70
2022/07/21 05:05:17;;;;;;;115.17;20.90;;;;;;;23.17;51.48;99925.87;1753284;81;21033;-71
2022/07/21 05:07:44;;;;;;;8.08;2.20;;;;;;;23.42;50.51;99924.89;1756347;81;21131;-70
2022/07/21 05:10:14;;;;;;;10.18;1.30;;;;;;;23.43;48.96;99919.88;1755733;81;21100;-69
2022/07/21 05:12:41;;;;;;;6.53;1.67;;;;;;;23.41;50.08;99920.02;1756444;81;21161;-71
2022/07/21 05:15:11;;;;;;;3.47;1.60;;;;;;;23.54;49.17;99925.60;1750590;81;21229;-71
2022/07/21 05:17:40;;;;;;;3.10;1.20;;;;;;;23.55;48.24;99925.43;1691114;83;21120;-69
2022/07/21 05:20:09;;;;;;;3.60;1.20;;;;;;;23.42;49.04;99926.23;1691187;84;21134;-70
2022/07/21 05:22:37;;;;;;;7.55;0.95;;;;;;;23.48;48.56;99928.86;1719937;83;21081;-71
2022/07/21 05:25:06;;;;;;;3.87;1.12;;;;;;;23.57;48.99;99920.77;1714363;83;21094;-70
2022/07/21 05:27:32;;;;;;;1.75;1.12;;;;;;;23.54;48.65;99918.38;1710118;83;22117;-68
2022/07/21 05:29:59;;;;;;;3.40;1.30;;;;;;;23.62;48.09;99921.17;1715212;83;21085;-71
2022/07/21 05:32:25;;;;;;;6.30;1.25;;;;;;;23.75;48.08;99911.98;1718202;83;21079;-69
2022/07/21 05:34:53;;;;;;;4.60;1.00;;;;;;;23.83;47.73;99914.77;1719284;83;21113;-70
2022/07/21 05:37:20;;;;;;;3.30;1.10;;;;;;;23.97;47.14;99900.86;1720274;83;21075;-70
2022/07/21 05:39:47;;;;;;;3.72;1.40;;;;;;;24.03;47.94;99905.62;1720044;83;21700;-70
2022/07/21 05:42:13;;;;;;;7.90;1.20;;;;;;;24.11;46.31;99901.34;1717336;83;21644;-70
2022/07/21 05:44:40;;;;;;;6.08;1.00;;;;;;;24.16;46.99;99901.76;1699673;83;21023;-69
2022/07/21 05:47:08;;;;;;;1.65;0.88;;;;;;;24.20;45.94;99900.44;1738032;82;21098;-71
2022/07/21 05:49:35;;;;;;;1.57;0.80;;;;;;;24.28;45.78;99900.55;1747726;82;21093;-71
2022/07/21 05:52:02;;;;;;;3.40;0.90;;;;;;;24.35;45.86;99901.63;1746619;82;21243;-71
2022/07/21 05:54:29;;;;;;;3.58;1.30;;;;;;;24.39;45.55;99903.03;1741793;82;21128;-70
2022/07/21 05:56:58;;;;;;;7.85;1.40;;;;;;;24.52;45.51;99896.45;1738235;82;21093;-69
2022/07/21 05:59:24;;;;;;;6.85;1.22;;;;;;;24.56;45.13;99900.54;1740170;82;21072;-70
2022/07/21 06:01:51;;;;;;;4.05;1.32;;;;;;;24.63;43.96;99893.55;1740762;82;21097;-69
2022/07/21 06:04:18;;;;;;;5.83;0.85;;;;;;;24.65;44.46;99892.89;1742504;82;21135;-69
2022/07/21 06:06:45;;;;;;;5.03;1.10;;;;;;;24.70;43.33;99898.15;1742793;82;21109;-70
2022/07/21 06:09:12;;;;;;;4.30;1.10;;;;;;;24.75;43.64;99884.22;1742515;82;21119;-70
2022/07/21 06:11:39;;;;;;;4.33;1.10;;;;;;;24.85;43.74;99897.63;1742748;81;21122;-71
2022/07/21 06:14:05;;;;;;;3.92;1.17;;;;;;;25.04;42.75;99891.22;1742777;81;21002;-70
2022/07/21 06:16:32;;;;;;;4.50;0.85;;;;;;;25.07;42.92;99893.59;1742735;82;21321;-71
2022/07/21 06:18:59;;;;;;;3.62;0.82;;;;;;;25.07;41.65;99894.94;1742570;82;21081;-69
2022/07/21 06:21:26;;;;;;;2.75;1.12;;;;;;;25.03;42.06;99899.81;1742490;81;21085;-70
2022/07/21 06:23:53;;;;;;;4.33;1.17;;;;;;;24.97;42.75;99887.46;1742544;82;21133;-71
2022/07/21 06:26:21;;;;;;;3.77;0.93;;;;;;;24.96;42.04;99888.45;1742789;82;21053;-70
2022/07/21 06:28:48;;;;;;;1.40;0.65;;;;;;;24.99;42.85;99889.50;1742688;82;21193;-70
2022/07/21 06:31:16;;;;;;;7.47;0.85;;;;;;;25.15;42.52;99885.59;1742640;82;21097;-69
2022/07/21 06:33:44;;;;;;;1.52;0.70;;;;;;;25.41;42.07;99875.35;1742505;82;21089;-70
2022/07/21 06:36:10;;;;;;;3.72;0.80;;;;;;;25.64;41.48;99879.19;1742978;82;21130;-70
2022/07/21 06:38:36;;;;;;;6.33;1.00;;;;;;;25.65;40.84;99874.16;1742703;82;21073;-70
2022/07/21 06:41:03;;;;;;;3.33;0.82;;;;;;;25.69;41.75;99875.50;1742754;82;21105;-70
2022/07/21 06:43:30;;;;;;;4.72;0.98;;;;;;;26.06;41.12;99865.41;1734813;82;21022;-74
2022/07/21 06:45:57;;;;;;;1.52;0.60;;;;;;;26.39;39.79;99870.42;1741830;82;21108;-71
2022/07/21 06:48:25;;;;;;;3.75;0.62;;;;;;;26.52;39.06;99864.01;1705966;84;21050;-70
2022/07/21 06:50:53;;;;;;;8.25;1.00;;;;;;;26.42;38.27;99873.30;1742375;82;21077;-70
2022/07/21 06:53:22;;;;;;;4.05;1.02;;;;;;;26.35;38.84;99869.05;1737248;82;21144;-70
2022/07/21 06:55:52;;;;;;;3.33;0.88;;;;;;;26.53;38.94;99863.02;1706661;84;21042;-70
2022/07/21 06:58:24;;;;;;;4.30;1.00;;;;;;;26.63;38.89;99866.09;1706513;83;21093;-70
2022/07/21 07:00:51;;;;;;;5.00;1.05;;;;;;;26.79;38.56;99858.84;1706737;84;21097;-70
2022/07/21 07:03:18;;;;;;;2.15;0.82;;;;;;;26.74;38.54;99859.86;1706504;84;21526;-70
2022/07/21 07:05:45;;;;;;;2.50;0.70;;;;;;;26.83;38.08;99862.58;1707007;84;21345;-71
2022/07/21 07:08:12;;;;;;;6.70;1.20;;;;;;;26.85;38.02;99861.39;1706561;84;21553;-72
2022/07/21 07:10:41;;;;;;;5.58;0.80;;;;;;;26.90;37.48;99861.72;1706717;84;21053;-69
2022/07/21 07:13:07;;;;;;;3.90;0.78;;;;;;;26.96;37.73;99859.70;1706868;83;21054;-70
2022/07/21 07:15:36;;;;;;;6.15;1.25;;;;;;;27.06;38.17;99864.09;1706635;84;21521;-72
2022/07/21 07:18:05;;;;;;;4.03;0.70;;;;;;;27.17;37.43;99847.50;1706522;84;21551;-71
2022/07/21 07:20:32;;;;;;;1.32;0.68;;;;;;;27.21;37.39;99862.40;1706909;84;21045;-69
2022/07/21 07:22:58;;;;;;;3.05;0.68;;;;;;;27.34;35.88;99860.02;1706824;84;21651;-71
2022/07/21 07:25:25;;;;;;;6.10;0.82;;;;;;;27.25;35.56;99853.45;1706788;84;21029;-71
2022/07/21 07:27:51;;;;;;;3.77;0.85;;;;;;;27.25;36.03;99844.83;1707119;84;21078;-70
2022/07/21 07:30:19;;;;;;;4.67;1.12;;;;;;;27.23;35.60;99849.56;1706742;84;22436;-70
2022/07/21 07:32:47;;;;;;;5.90;0.60;;;;;;;27.28;36.43;99862.05;1706966;84;21606;-70
2022/07/21 07:35:14;;;;;;;2.25;0.50;;;;;;;27.52;36.20;99864.39;1742629;82;21010;-71
2022/07/21 07:37:44;;;;;;;5.05;0.70;;;;;;;27.66;34.84;99854.20;1742901;82;21072;-71
2022/07/21 07:40:15;;;;;;;1.52;0.70;;;;;;;27.80;34.96;99857.52;1706933;84;21104;-70
2022/07/21 07:42:41;;;;;;;;;;;;;;;27.70;34.00;99849.26;1745459;82;21125;-70
2022/07/21 07:45:10;;;;;;;5.58;0.88;;;;;;;27.63;35.11;99859.97;1742320;82;20221;-72
2022/07/21 07:47:38;;;;;;;2.62;0.88;;;;;;;27.60;35.45;99850.83;1707082;84;21264;-71
2022/07/21 07:50:08;;;;;;;2.62;0.70;;;;;;;27.84;34.86;99858.05;1706595;84;21084;-71
2022/07/21 07:52:37;;;;;;;3.00;0.93;;;;;;;27.97;34.79;99849.36;1742744;82;21037;-70
2022/07/21 07:55:10;;;;;;;1.82;0.60;;;;;;;27.89;34.38;99849.41;1711689;82;21030;-71
2022/07/21 07:57:40;;;;;;;3.27;0.68;;;;;;;27.91;34.74;99852.79;1706620;83;21387;-70
2022/07/21 08:00:13;;;;;;;5.33;1.22;;;;;;;28.13;34.08;99837.09;1706725;84;21032;-69
2022/07/21 08:02:39;;;;;;;7.70;1.00;;;;;;;28.38;33.89;99841.84;1706335;84;21595;-71
2022/07/21 08:05:10;;;;;;;4.92;1.15;;;;;;;28.72;33.22;99827.60;1706826;84;21092;-71
2022/07/21 08:07:38;;;;;;;3.17;0.88;;;;;;;28.66;33.22;99839.99;1706976;84;21607;-70
2022/07/21 08:10:12;;;;;;;4.47;0.98;;;;;;;28.55;33.34;99848.05;1706989;84;22295;-71
2022/07/21 08:12:38;;;;;;;3.08;1.02;;;;;;;28.50;33.23;99834.18;1710210;82;21018;-70
2022/07/21 08:15:07;;;;;;;2.72;0.60;;;;;;;28.46;32.85;99839.63;1740076;82;21041;-72
2022/07/21 08:17:34;;;;;;;6.00;0.82;;;;;;;28.45;33.02;99837.91;1742098;82;21061;-71
2022/07/21 08:20:03;;;;;;;11.50;1.35;;;;;;;28.32;33.47;99834.95;1742625;82;21211;-70
2022/07/21 08:22:30;;;;;;;3.95;0.60;;;;;;;28.52;32.51;99821.30;1742674;82;21001;-72
2022/07/21 08:24:56;;;;;;;2.05;0.72;;;;;;;28.72;31.86;99823.02;1742443;82;21178;-70
2022/07/21 08:27:23;;;;;;;3.75;0.70;;;;;;;28.86;31.87;99824.92;1742893;82;21652;-71
2022/07/21 08:29:50;;;;;;;2.72;0.65;;;;;;;28.93;32.00;99811.48;1742798;82;21088;-71
2022/07/21 08:32:17;;;;;;;1.75;0.68;;;;;;;28.97;32.54;99822.81;1742848;82;21239;-71
2022/07/21 08:34:45;;;;;;;1.67;0.70;;;;;;;29.02;31.68;99819.03;1743043;82;21041;-70
2022/07/21 08:37:13;;;;;;;5.17;0.80;;;;;;;28.92;32.15;99811.66;1742796;82;21085;-71
2022/07/21 08:39:39;;;;;;;4.97;0.65;;;;;;;28.89;32.41;99802.55;1743241;82;21101;-71
2022/07/21 08:42:07;;;;;;;3.95;0.90;;;;;;;29.06;32.00;99791.89;1742797;82;21377;-70
2022/07/21 08:44:34;;;;;;;3.42;0.62;;;;;;;29.08;31.74;99798.01;1742703;82;21111;-69
2022/07/21 08:47:01;;;;;;;2.75;0.60;;;;;;;29.17;31.45;99798.73;1742633;82;21540;-71
2022/07/21 08:49:29;;;;;;;2.92;0.68;;;;;;;29.19;31.46;99792.10;1742824;82;21092;-70
2022/07/21 08:51:55;;;;;;;7.80;0.90;;;;;;;29.28;31.54;99782.02;1742747;82;21058;-71
2022/07/21 08:54:22;;;;;;;2.87;0.80;;;;;;;29.37;30.78;99789.03;1722646;82;21049;-72
2022/07/21 08:56:49;;;;;;;3.15;1.02;;;;;;;29.45;31.15;99783.52;1733672;81;21212;-71
2022/07/21 08:59:16;;;;;;;4.33;0.62;;;;;;;29.41;31.16;99786.80;1740059;82;21058;-71
2022/07/21 09:01:43;;;;;;;2.20;0.50;;;;;;;29.25;31.34;99789.17;1737573;81;21057;-70
2022/07/21 09:04:22;;;;;;;4.15;0.50;;;;;;;29.09;31.26;99786.64;1742652;82;21047;-71
2022/07/21 09:06:55;;;;;;;3.95;0.55;;;;;;;28.98;31.40;99767.56;1688093;84;21171;-71
2022/07/21 09:09:22;;;;;;;5.37;0.65;;;;;;;29.01;32.01;99768.05;1703000;83;21303;-72
2022/07/21 09:11:50;;;;;;;1.02;0.50;;;;;;;29.16;31.69;99765.89;1701175;83;21005;-72
2022/07/21 09:14:23;;;;;;;1.98;0.60;;;;;;;29.23;31.87;99763.59;1710816;83;21054;-71
2022/07/21 09:17:01;;;;;;;2.47;0.70;;;;;;;29.26;31.55;99767.80;1704191;83;21618;-72
2022/07/21 09:19:35;;;;;;;2.62;0.78;;;;;;;29.45;31.15;99777.26;1710620;83;21053;-71
2022/07/21 09:22:07;;;;;;;1.70;0.57;;;;;;;29.57;31.05;99762.70;1710501;83;21115;-70
2022/07/21 09:24:39;;;;;;;2.17;0.90;;;;;;;29.85;31.16;99765.57;1710822;83;21642;-70
2022/07/21 09:27:15;;;;;;;2.52;0.70;;;;;;;29.89;30.45;99747.36;1707371;83;21093;-72
2022/07/21 09:29:53;;;;;;;2.05;0.50;;;;;;;29.95;30.42;99755.76;1708377;83;21062;-70
2022/07/21 09:32:31;;;;;;;3.42;0.80;;;;;;;30.00;30.34;99749.23;1711375;83;21584;-70
2022/07/21 09:35:13;;;;;;;3.65;0.70;;;;;;;30.02;30.56;99751.23;1711472;83;21068;-71
2022/07/21 09:37:39;;;;;;;2.00;0.95;;;;;;;30.15;30.42;99742.41;1740726;82;21042;-71
2022/07/21 09:40:12;;;;;;;2.00;0.50;;;;;;;30.14;30.50;99748.85;1742487;82;21082;-71
2022/07/21 09:42:42;;;;;;;5.58;0.70;;;;;;;30.05;29.73;99746.80;1742945;81;21521;-71
2022/07/21 09:45:12;;;;;;;3.02;0.82;;;;;;;29.87;30.42;99744.52;1742509;80;21105;-70
2022/07/21 09:47:40;;;;;;;2.12;0.75;;;;;;;29.85;30.94;99732.48;1741421;82;21179;-72
2022/07/21 09:50:12;;;;;;;2.00;0.63;;;;;;;29.96;30.35;99728.95;1707965;84;21057;-72
2022/07/21 09:52:43;;;;;;;3.95;0.60;;;;;;;30.41;30.55;99729.09;1737849;81;21012;-70
2022/07/21 09:55:13;;;;;;;2.33;0.60;;;;;;;30.41;30.55;99729.09;1755964;81;21045;-72
2022/07/21 09:57:43;;;;;;;3.40;0.70;;;;;;;30.59;29.67;99724.55;1742800;81;21056;-71
2022/07/21 10:00:16;;;;;;;7.70;0.90;;;;;;;30.74;30.08;99721.22;1706913;84;22158;-71
2022/07/21 10:02:44;;;;;;;10.60;0.78;;;;;;;30.88;28.87;99718.64;1736060;81;21050;-70
2022/07/21 10:05:17;;;;;;;1.42;0.70;;;;;;;30.99;29.33;99725.38;1732295;82;21038;-71
2022/07/21 10:07:47;;;;;;;2.95;1.00;;;;;;;30.89;29.66;99712.14;1738184;82;21113;-71
2022/07/21 10:10:16;;;;;;;1.47;0.85;;;;;;;30.81;29.20;99725.88;1742578;82;21141;-72
2022/07/21 10:12:45;;;;;;;3.47;0.80;;;;;;;30.76;29.94;99716.09;1742482;82;21111;-72
2022/07/21 10:15:13;;;;;;;2.65;1.00;;;;;;;30.61;29.42;99713.48;1738037;82;21085;-72
2022/07/21 10:17:42;;;;;;;2.08;0.72;;;;;;;30.41;29.81;99714.67;1742549;81;21004;-70
2022/07/21 10:20:25;;;;;;;6.80;1.15;;;;;;;30.20;30.77;99709.55;1738063;82;21616;-71
2022/07/21 10:23:22;;;;;;;4.03;0.90;;;;;;;30.22;30.55;99713.44;1741923;82;21597;-72
2022/07/21 10:25:50;;;;;;;2.27;1.25;;;;;;;30.41;30.59;99707.36;1742676;82;21965;-71
2022/07/21 10:28:23;;;;;;;1.87;1.05;;;;;;;30.60;29.90;99699.56;1742617;82;21081;-73
2022/07/21 10:30:57;;;;;;;5.53;1.00;;;;;;;30.67;29.65;99686.36;1742727;82;21063;-71
2022/07/21 10:33:47;;;;;;;2.95;0.90;;;;;;;30.60;30.11;99699.06;1742872;82;21090;-71
2022/07/21 10:36:37;;;;;;;6.17;1.60;;;;;;;30.46;30.63;99701.34;1742507;82;21074;-71
2022/07/21 10:39:16;;;;;;;3.55;1.10;;;;;;;30.20;31.23;99711.43;1742368;82;22397;-71
2022/07/21 10:41:51;;;;;;;3.30;1.00;;;;;;;29.89;31.14;99705.28;1742611;82;21073;-71
2022/07/21 10:44:32;;;;;;;1.20;0.80;;;;;;;29.64;31.74;99695.79;1738542;82;21119;-70
2022/07/21 10:47:20;;;;;;;3.42;1.10;;;;;;;29.03;32.73;99706.36;1725082;83;21076;-70
2022/07/21 10:49:51;;;;;;;1.72;0.90;;;;;;;29.03;32.73;99706.36;1716206;83;21049;-71
2022/07/21 10:52:42;;;;;;;5.33;1.12;;;;;;;28.58;33.58;99709.53;1717072;83;21351;-70
2022/07/21 10:55:13;;;;;;;8.00;1.22;;;;;;;28.55;33.71;99693.66;1724519;82;21627;-71
2022/07/21 10:57:47;;;;;;;4.22;1.17;;;;;;;28.66;34.10;99686.92;1713243;83;21072;-71
2022/07/21 11:00:29;;;;;;;3.92;1.32;;;;;;;28.83;33.59;99684.91;1716337;83;21108;-70
2022/07/21 11:03:00;;;;;;;3.02;1.40;;;;;;;29.09;33.49;99683.63;1718258;83;21097;-70
2022/07/21 11:05:30;;;;;;;21.15;1.60;;;;;;;29.42;33.05;99662.34;1722426;83;21740;-69
2022/07/21 11:08:17;;;;;;;5.58;1.80;;;;;;;29.61;32.67;99697.02;1721787;83;21073;-71
2022/07/21 11:10:47;;;;;;;5.12;1.40;;;;;;;29.69;32.47;99692.02;1694031;83;21197;-71
2022/07/21 11:13:16;;;;;;;3.02;1.57;;;;;;;29.69;32.84;99697.44;1695408;84;21095;-72
2022/07/21 11:15:46;;;;;;;2.47;1.50;;;;;;;29.76;32.51;99688.85;1693721;84;21097;-72
2022/07/21 11:18:18;;;;;;;2.25;1.22;;;;;;;30.00;32.53;99690.86;1698004;84;21092;-72
2022/07/21 11:21:05;;;;;;;3.20;1.25;;;;;;;30.41;31.96;99685.62;1696309;84;21682;-71
2022/07/21 11:23:45;;;;;;;3.37;1.25;;;;;;;30.41;30.86;99682.91;1694786;84;21065;-72
2022/07/21 11:26:21;;;;;;;3.30;1.45;;;;;;;30.03;31.87;99697.28;1693874;84;21069;-70
2022/07/21 11:28:49;;;;;;;4.35;1.57;;;;;;;30.03;31.87;99697.28;1693646;84;22094;-71
2022/07/21 11:31:24;;;;;;;2.98;1.72;;;;;;;29.93;32.26;99694.03;1639539;84;21409;-72
2022/07/21 11:33:49;;;;;;;7.80;1.92;;;;;;;29.84;32.49;99698.24;1694742;84;21060;-71
2022/07/21 11:36:25;;;;;;;3.40;1.60;;;;;;;29.87;32.55;99686.98;1695437;84;21041;-71
2022/07/21 11:39:06;;;;;;;3.05;1.67;;;;;;;29.67;32.44;99694.04;1693432;84;21546;-70
2022/07/21 11:41:34;;;;;;;4.75;1.80;;;;;;;29.67;32.44;99694.04;1695201;84;21054;-69
2022/07/21 11:44:02;;;;;;;10.95;2.15;;;;;;;29.32;32.72;99693.84;1697593;84;21216;-71